createdAt,value
2018-10-21T00:00:48.558Z,0
2018-10-21T00:01:58.451Z,0
2018-10-21T00:03:08.523Z,0
2018-10-21T00:04:18.605Z,0
2018-10-21T00:05:28.514Z,0
2018-10-21T00:06:38.673Z,0
2018-10-21T00:07:48.287Z,0
2018-10-21T00:08:57.997Z,0
2018-10-21T00:10:07.949Z,0
2018-10-21T00:11:17.833Z,0
2018-10-21T00:12:27.451Z,0
2018-10-21T00:13:37.077Z,0
2018-10-21T00:14:47.243Z,0
2018-10-21T00:15:56.852Z,0
2018-10-21T00:17:06.194Z,0
2018-10-21T00:18:15.813Z,0
2018-10-21T00:19:25.702Z,0
2018-10-21T00:20:35.596Z,0
2018-10-21T00:21:45.491Z,0
2018-10-21T00:22:55.649Z,0
2018-10-21T00:24:05.538Z,0
2018-10-21T00:25:15.435Z,0
2018-10-21T00:26:25.051Z,0
2018-10-21T00:27:34.942Z,0
2018-10-21T00:28:44.831Z,0
2018-10-21T00:29:54.446Z,0
2018-10-21T00:31:03.786Z,0
2018-10-21T00:32:13.950Z,0
2018-10-21T00:33:23.997Z,0
2018-10-21T00:34:33.917Z,0
2018-10-21T00:35:43.812Z,0
2018-10-21T00:36:53.703Z,0
2018-10-21T00:38:03.046Z,0
2018-10-21T00:39:12.565Z,0
2018-10-21T00:40:22.674Z,0
2018-10-21T00:41:32.289Z,0
2018-10-21T00:42:41.903Z,0
2018-10-21T00:43:51.840Z,0
2018-10-21T00:45:01.897Z,0
2018-10-21T00:46:12.195Z,0
2018-10-21T00:47:22.089Z,0
2018-10-21T00:48:32.007Z,0
2018-10-21T00:49:41.623Z,0
2018-10-21T00:50:51.238Z,0
2018-10-21T00:52:00.313Z,0
2018-10-21T00:53:09.926Z,0
2018-10-21T00:54:19.819Z,0
2018-10-21T00:55:29.725Z,0
2018-10-21T00:56:39.336Z,0
2018-10-21T00:57:49.502Z,0
2018-10-21T00:58:59.680Z,0
2018-10-21T01:00:09.585Z,0
2018-10-21T01:01:19.752Z,0
2018-10-21T01:02:29.637Z,0
2018-10-21T01:03:39.801Z,0
2018-10-21T01:04:49.140Z,0
2018-10-21T01:05:59.294Z,0
2018-10-21T01:07:08.917Z,0
2018-10-21T01:08:19.077Z,0
2018-10-21T01:09:29.249Z,0
2018-10-21T01:10:39.208Z,0
2018-10-21T01:11:49.101Z,0
2018-10-21T01:12:58.992Z,0
2018-10-21T01:14:08.617Z,0
2018-10-21T01:15:18.509Z,0
2018-10-21T01:16:27.704Z,0
2018-10-21T01:17:37.871Z,0
2018-10-21T01:18:48.040Z,0
2018-10-21T01:19:57.922Z,0
2018-10-21T01:21:08.052Z,0
2018-10-21T01:22:18.090Z,0
2018-10-21T01:23:28.266Z,0
2018-10-21T01:24:38.428Z,0
2018-10-21T01:25:48.051Z,0
2018-10-21T01:26:57.968Z,0
2018-10-21T01:28:07.609Z,0
2018-10-21T01:29:17.772Z,0
2018-10-21T01:30:27.671Z,0
2018-10-21T01:31:37.570Z,0
2018-10-21T01:32:47.462Z,0
2018-10-21T01:33:57.634Z,0
2018-10-21T01:35:07.810Z,0
2018-10-21T01:36:18.304Z,0
2018-10-21T01:37:29.270Z,0
2018-10-21T01:38:39.514Z,0
2018-10-21T01:39:49.675Z,0
2018-10-21T01:40:59.574Z,0
2018-10-21T01:42:09.681Z,0
2018-10-21T01:43:19.296Z,0
2018-10-21T01:44:29.194Z,0
2018-10-21T01:45:39.356Z,0
2018-10-21T01:46:48.965Z,0
2018-10-21T01:47:58.853Z,0
2018-10-21T01:49:08.498Z,0
2018-10-21T01:50:17.890Z,0
2018-10-21T01:51:27.780Z,0
2018-10-21T01:52:37.124Z,0
2018-10-21T01:53:46.737Z,0
2018-10-21T01:54:56.620Z,0
2018-10-21T01:56:06.780Z,0
2018-10-21T01:57:16.936Z,0
2018-10-21T01:58:27.308Z,0
2018-10-21T01:59:36.971Z,0
2018-10-21T02:00:46.849Z,0
2018-10-21T02:01:57.007Z,0
2018-10-21T02:03:06.239Z,0
2018-10-21T02:04:16.558Z,0
2018-10-21T02:05:26.451Z,0
2018-10-21T02:06:36.062Z,0
2018-10-21T02:07:46.226Z,0
2018-10-21T02:08:56.180Z,0
2018-10-21T02:10:06.110Z,0
2018-10-21T02:11:15.996Z,0
2018-10-21T02:12:25.887Z,0
2018-10-21T02:13:35.503Z,0
2018-10-21T02:14:45.675Z,0
2018-10-21T02:15:55.295Z,0
2018-10-21T02:17:04.360Z,0
2018-10-21T02:18:14.256Z,0
2018-10-21T02:19:23.898Z,0
2018-10-21T02:20:33.800Z,0
2018-10-21T02:21:43.694Z,0
2018-10-21T02:22:53.855Z,0
2018-10-21T02:24:03.473Z,0
2018-10-21T02:25:13.631Z,0
2018-10-21T02:26:23.843Z,0
2018-10-21T02:27:33.863Z,0
2018-10-21T02:28:43.221Z,0
2018-10-21T02:29:52.838Z,0
2018-10-21T02:31:02.179Z,0
2018-10-21T02:32:11.247Z,0
2018-10-21T02:33:20.489Z,0
2018-10-21T02:34:30.778Z,0
2018-10-21T02:35:40.674Z,0
2018-10-21T02:36:50.840Z,0
2018-10-21T02:38:00.728Z,0
2018-10-21T02:39:10.476Z,0
2018-10-21T02:40:19.920Z,0
2018-10-21T02:41:29.553Z,0
2018-10-21T02:42:39.454Z,0
2018-10-21T02:43:49.072Z,0
2018-10-21T02:44:59.176Z,0
2018-10-21T02:46:08.820Z,0
2018-10-21T02:47:18.446Z,0
2018-10-21T02:48:28.334Z,0
2018-10-21T02:49:38.508Z,0
2018-10-21T02:50:48.397Z,0
2018-10-21T02:51:58.018Z,0
2018-10-21T02:53:07.918Z,0
2018-10-21T02:54:17.003Z,0
2018-10-21T02:55:26.628Z,0
2018-10-21T02:56:36.799Z,0
2018-10-21T02:57:46.146Z,0
2018-10-21T02:58:56.042Z,0
2018-10-21T03:00:05.959Z,0
2018-10-21T03:01:15.859Z,0
2018-10-21T03:02:25.467Z,0
2018-10-21T03:03:35.366Z,0
2018-10-21T03:04:44.978Z,0
2018-10-21T03:05:54.876Z,0
2018-10-21T03:07:04.763Z,0
2018-10-21T03:08:14.668Z,0
2018-10-21T03:09:24.175Z,0
2018-10-21T03:10:34.069Z,0
2018-10-21T03:11:44.244Z,0
2018-10-21T03:12:53.589Z,0
2018-10-21T03:14:03.205Z,0
2018-10-21T03:15:13.484Z,0
2018-10-21T03:16:23.287Z,0
2018-10-21T03:17:32.920Z,0
2018-10-21T03:18:42.813Z,0
2018-10-21T03:19:52.714Z,0
2018-10-21T03:21:03.138Z,0
2018-10-21T03:22:12.830Z,0
2018-10-21T03:23:22.714Z,0
2018-10-21T03:24:32.596Z,0
2018-10-21T03:25:42.221Z,0
2018-10-21T03:26:52.108Z,0
2018-10-21T03:28:01.856Z,0
2018-10-21T03:29:11.199Z,0
2018-10-21T03:30:20.829Z,0
2018-10-21T03:31:30.506Z,0
2018-10-21T03:32:40.800Z,0
2018-10-21T03:33:50.714Z,0
2018-10-21T03:35:00.475Z,0
2018-10-21T03:36:10.685Z,0
2018-10-21T03:37:20.881Z,0
2018-10-21T03:38:31.055Z,0
2018-10-21T03:39:40.945Z,0
2018-10-21T03:40:50.842Z,0
2018-10-21T03:42:00.438Z,0
2018-10-21T03:43:10.051Z,0
2018-10-21T03:44:19.677Z,0
2018-10-21T03:45:29.027Z,0
2018-10-21T03:46:38.365Z,0
2018-10-21T03:47:47.987Z,0
2018-10-21T03:48:58.158Z,0
2018-10-21T03:50:08.051Z,0
2018-10-21T03:51:17.390Z,0
2018-10-21T03:52:27.282Z,0
2018-10-21T03:53:36.620Z,0
2018-10-21T03:54:45.962Z,0
2018-10-21T03:55:55.853Z,0
2018-10-21T03:57:04.928Z,0
2018-10-21T03:58:15.214Z,0
2018-10-21T03:59:24.950Z,0
2018-10-21T04:00:34.843Z,0
2018-10-21T04:01:45.058Z,0
2018-10-21T04:02:54.402Z,0
2018-10-21T04:04:04.717Z,0
2018-10-21T04:05:14.829Z,0
2018-10-21T04:06:24.719Z,0
2018-10-21T04:07:34.607Z,0
2018-10-21T04:08:44.493Z,0
2018-10-21T04:09:54.405Z,0
2018-10-21T04:11:04.592Z,0
2018-10-21T04:12:14.206Z,0
2018-10-21T04:13:23.832Z,0
2018-10-21T04:14:33.181Z,0
2018-10-21T04:15:42.542Z,0
2018-10-21T04:16:52.435Z,0
2018-10-21T04:18:02.066Z,0
2018-10-21T04:19:11.679Z,0
2018-10-21T04:20:21.572Z,0
2018-10-21T04:21:31.187Z,0
2018-10-21T04:22:40.532Z,0
2018-10-21T04:23:50.699Z,0
2018-10-21T04:25:00.310Z,0
2018-10-21T04:26:10.479Z,0
2018-10-21T04:27:20.632Z,0
2018-10-21T04:28:29.978Z,0
2018-10-21T04:29:39.871Z,0
2018-10-21T04:30:50.050Z,0
2018-10-21T04:31:59.945Z,0
2018-10-21T04:33:09.299Z,0
2018-10-21T04:34:19.570Z,0
2018-10-21T04:35:29.813Z,0
2018-10-21T04:36:40.241Z,0
2018-10-21T04:37:49.849Z,0
2018-10-21T04:38:59.741Z,0
2018-10-21T04:40:09.614Z,0
2018-10-21T04:41:20.026Z,0
2018-10-21T04:42:29.688Z,0
2018-10-21T04:43:39.303Z,0
2018-10-21T04:44:49.187Z,0
2018-10-21T04:45:58.894Z,0
2018-10-21T04:47:09.545Z,0
2018-10-21T04:48:19.938Z,0
2018-10-21T04:49:29.824Z,0
2018-10-21T04:50:39.440Z,0
2018-10-21T04:51:49.606Z,0
2018-10-21T04:52:58.953Z,0
2018-10-21T04:54:08.567Z,0
2018-10-21T04:55:18.460Z,0
2018-10-21T04:56:28.347Z,0
2018-10-21T04:57:37.962Z,0
2018-10-21T04:58:47.855Z,0
2018-10-21T04:59:57.738Z,0
2018-10-21T05:01:07.620Z,0
2018-10-21T05:02:17.506Z,0
2018-10-21T05:03:27.401Z,0
2018-10-21T05:04:37.022Z,0
2018-10-21T05:05:46.645Z,0
2018-10-21T05:06:56.544Z,0
2018-10-21T05:08:06.171Z,0
2018-10-21T05:09:16.337Z,0
2018-10-21T05:10:26.514Z,0
2018-10-21T05:11:36.404Z,0
2018-10-21T05:12:46.016Z,0
2018-10-21T05:13:56.183Z,0
2018-10-21T05:15:06.497Z,0
2018-10-21T05:16:16.476Z,0
2018-10-21T05:17:26.818Z,0
2018-10-21T05:18:36.714Z,0
2018-10-21T05:19:46.603Z,0
2018-10-21T05:20:56.213Z,0
2018-10-21T05:22:05.957Z,0
2018-10-21T05:23:16.254Z,0
2018-10-21T05:24:26.426Z,0
2018-10-21T05:25:36.049Z,0
2018-10-21T05:26:45.950Z,0
2018-10-21T05:27:55.567Z,0
2018-10-21T05:29:05.567Z,0
2018-10-21T05:30:15.464Z,4
2018-10-21T05:31:25.356Z,4
2018-10-21T05:32:35.247Z,0
2018-10-21T05:33:44.921Z,4
2018-10-21T05:34:55.079Z,4
2018-10-21T05:36:04.420Z,4
2018-10-21T05:37:14.307Z,4
2018-10-21T05:38:24.199Z,8
2018-10-21T05:39:34.090Z,8
2018-10-21T05:40:43.869Z,12
2018-10-21T05:41:54.172Z,8
2018-10-21T05:43:03.518Z,12
2018-10-21T05:44:13.405Z,16
2018-10-21T05:45:23.303Z,20
2018-10-21T05:46:32.931Z,24
2018-10-21T05:47:42.859Z,28
2018-10-21T05:48:52.208Z,32
2018-10-21T05:50:01.814Z,40
2018-10-21T05:51:11.464Z,44
2018-10-21T05:52:21.714Z,56
2018-10-21T05:53:31.602Z,64
2018-10-21T05:54:41.490Z,72
2018-10-21T05:55:51.109Z,80
2018-10-21T05:57:00.999Z,88
2018-10-21T05:58:11.177Z,100
2018-10-21T05:59:21.461Z,112
2018-10-21T06:00:31.663Z,124
2018-10-21T06:01:41.557Z,140
2018-10-21T06:02:52.008Z,156
2018-10-21T06:04:02.647Z,168
2018-10-21T06:05:12.316Z,184
2018-10-21T06:06:21.949Z,196
2018-10-21T06:07:31.291Z,212
2018-10-21T06:08:41.184Z,224
2018-10-21T06:09:50.628Z,236
2018-10-21T06:11:00.518Z,248
2018-10-21T06:12:10.426Z,260
2018-10-21T06:13:20.051Z,276
2018-10-21T06:14:29.936Z,292
2018-10-21T06:15:39.642Z,304
2018-10-21T06:16:49.622Z,320
2018-10-21T06:17:59.522Z,344
2018-10-21T06:19:09.137Z,384
2018-10-21T06:20:19.299Z,416
2018-10-21T06:21:29.464Z,444
2018-10-21T06:22:39.669Z,460
2018-10-21T06:23:49.898Z,476
2018-10-21T06:24:59.100Z,496
2018-10-21T06:26:08.718Z,520
2018-10-21T06:27:18.599Z,544
2018-10-21T06:28:28.217Z,576
2018-10-21T06:29:38.106Z,612
2018-10-21T06:30:48.004Z,644
2018-10-21T06:31:57.897Z,684
2018-10-21T06:33:07.678Z,716
2018-10-21T06:34:17.304Z,748
2018-10-21T06:35:27.198Z,772
2018-10-21T06:36:37.138Z,788
2018-10-21T06:37:47.249Z,824
2018-10-21T06:38:57.429Z,868
2018-10-21T06:40:07.409Z,892
2018-10-21T06:41:17.570Z,916
2018-10-21T06:42:27.459Z,948
2018-10-21T06:43:37.079Z,980
2018-10-21T06:44:46.976Z,1008
2018-10-21T06:45:56.050Z,1044
2018-10-21T06:47:05.941Z,1092
2018-10-21T06:48:15.868Z,1124
2018-10-21T06:49:25.791Z,1168
2018-10-21T06:50:35.682Z,1212
2018-10-21T06:51:45.304Z,1248
2018-10-21T06:52:54.928Z,1272
2018-10-21T06:54:04.814Z,1280
2018-10-21T06:55:14.152Z,1300
2018-10-21T06:56:24.226Z,1308
2018-10-21T06:57:34.956Z,1304
2018-10-21T06:58:44.708Z,1300
2018-10-21T06:59:54.870Z,1316
2018-10-21T07:01:04.490Z,1340
2018-10-21T07:02:13.877Z,1372
2018-10-21T07:03:23.215Z,1404
2018-10-21T07:04:33.616Z,1432
2018-10-21T07:05:43.184Z,1476
2018-10-21T07:06:52.800Z,1516
2018-10-21T07:08:02.482Z,1564
2018-10-21T07:09:12.101Z,1564
2018-10-21T07:10:22.263Z,1536
2018-10-21T07:11:32.161Z,1520
2018-10-21T07:12:41.229Z,1556
2018-10-21T07:13:51.412Z,1576
2018-10-21T07:15:01.049Z,1516
2018-10-21T07:16:11.261Z,1396
2018-10-21T07:17:21.262Z,1252
2018-10-21T07:18:31.426Z,1156
2018-10-21T07:19:41.087Z,1140
2018-10-21T07:20:51.247Z,1128
2018-10-21T07:22:01.031Z,1140
2018-10-21T07:23:11.027Z,1224
2018-10-21T07:24:20.373Z,1220
2018-10-21T07:25:30.272Z,1164
2018-10-21T07:26:40.440Z,1144
2018-10-21T07:27:50.401Z,1208
2018-10-21T07:29:00.035Z,1356
2018-10-21T07:30:09.662Z,1568
2018-10-21T07:31:19.827Z,1720
2018-10-21T07:32:29.441Z,1736
2018-10-21T07:33:39.605Z,1828
2018-10-21T07:34:49.770Z,1956
2018-10-21T07:35:59.390Z,2072
2018-10-21T07:37:08.736Z,2164
2018-10-21T07:38:18.625Z,2260
2018-10-21T07:39:28.521Z,2360
2018-10-21T07:40:38.141Z,2408
2018-10-21T07:41:48.306Z,2492
2018-10-21T07:42:57.925Z,2580
2018-10-21T07:44:07.270Z,2636
2018-10-21T07:45:16.883Z,2684
2018-10-21T07:46:26.781Z,2756
2018-10-21T07:47:36.681Z,2780
2018-10-21T07:48:46.857Z,2780
2018-10-21T07:49:57.023Z,2784
2018-10-21T07:51:06.371Z,2816
2018-10-21T07:52:16.086Z,2856
2018-10-21T07:53:26.275Z,2912
2018-10-21T07:54:36.167Z,3008
2018-10-21T07:55:46.740Z,3100
2018-10-21T07:56:56.410Z,3168
2018-10-21T07:58:06.505Z,3200
2018-10-21T07:59:16.518Z,3228
2018-10-21T08:00:26.413Z,3276
2018-10-21T08:01:36.435Z,3348
2018-10-21T08:02:45.769Z,3408
2018-10-21T08:03:55.411Z,3444
2018-10-21T08:05:04.756Z,3408
2018-10-21T08:06:14.642Z,3312
2018-10-21T08:07:24.533Z,3276
2018-10-21T08:08:34.836Z,3312
2018-10-21T08:09:45.109Z,3360
2018-10-21T08:10:55.275Z,3404
2018-10-21T08:12:05.171Z,3476
2018-10-21T08:13:14.795Z,3556
2018-10-21T08:14:24.415Z,3660
2018-10-21T08:15:34.328Z,3708
2018-10-21T08:16:44.503Z,3688
2018-10-21T08:17:54.117Z,3680
2018-10-21T08:19:04.060Z,3680
2018-10-21T08:20:14.236Z,3656
2018-10-21T08:21:24.334Z,3616
2018-10-21T08:22:34.225Z,3612
2018-10-21T08:23:44.441Z,3652
2018-10-21T08:24:53.790Z,3712
2018-10-21T08:26:02.855Z,3736
2018-10-21T08:27:12.592Z,3776
2018-10-21T08:28:22.949Z,3792
2018-10-21T08:29:33.121Z,3836
2018-10-21T08:30:43.022Z,3928
2018-10-21T08:31:53.190Z,4048
2018-10-21T08:33:02.810Z,4164
2018-10-21T08:34:12.791Z,4328
2018-10-21T08:35:22.500Z,4464
2018-10-21T08:36:32.120Z,4572
2018-10-21T08:37:41.749Z,4668
2018-10-21T08:38:51.368Z,4684
2018-10-21T08:40:01.703Z,4644
2018-10-21T08:41:11.752Z,4604
2018-10-21T08:42:21.947Z,4624
2018-10-21T08:43:31.571Z,4712
2018-10-21T08:44:41.724Z,4800
2018-10-21T08:45:51.886Z,4860
2018-10-21T08:47:01.843Z,4892
2018-10-21T08:48:11.742Z,4904
2018-10-21T08:49:22.388Z,4928
2018-10-21T08:50:32.385Z,5012
2018-10-21T08:51:42.007Z,5144
2018-10-21T08:52:51.908Z,5292
2018-10-21T08:54:02.083Z,5428
2018-10-21T08:55:11.701Z,5552
2018-10-21T08:56:22.114Z,5660
2018-10-21T08:57:32.017Z,5720
2018-10-21T08:58:42.185Z,5756
2018-10-21T08:59:52.083Z,5776
2018-10-21T09:01:01.920Z,5800
2018-10-21T09:02:11.997Z,5888
2018-10-21T09:03:21.388Z,5956
2018-10-21T09:04:31.315Z,5956
2018-10-21T09:05:41.221Z,5948
2018-10-21T09:06:51.116Z,5984
2018-10-21T09:08:01.400Z,6036
2018-10-21T09:09:11.026Z,6104
2018-10-21T09:10:20.934Z,6216
2018-10-21T09:11:31.331Z,6356
2018-10-21T09:12:40.680Z,6484
2018-10-21T09:13:50.852Z,6536
2018-10-21T09:15:00.873Z,6560
2018-10-21T09:16:11.328Z,6596
2018-10-21T09:17:21.458Z,6596
2018-10-21T09:18:31.078Z,6676
2018-10-21T09:19:40.968Z,6812
2018-10-21T09:20:50.861Z,6824
2018-10-21T09:22:01.241Z,6808
2018-10-21T09:23:11.535Z,6836
2018-10-21T09:24:21.164Z,6840
2018-10-21T09:25:31.064Z,6816
2018-10-21T09:26:40.694Z,6780
2018-10-21T09:27:50.322Z,6780
2018-10-21T09:29:00.216Z,6824
2018-10-21T09:30:09.559Z,6864
2018-10-21T09:31:20.141Z,6944
2018-10-21T09:32:30.327Z,6928
2018-10-21T09:33:39.948Z,6904
2018-10-21T09:34:50.119Z,6852
2018-10-21T09:36:00.019Z,6832
2018-10-21T09:37:09.998Z,6904
2018-10-21T09:38:20.113Z,6936
2018-10-21T09:39:30.000Z,6900
2018-10-21T09:40:39.904Z,6884
2018-10-21T09:41:49.801Z,6872
2018-10-21T09:42:59.492Z,6868
2018-10-21T09:44:08.909Z,6900
2018-10-21T09:45:19.080Z,6892
2018-10-21T09:46:28.970Z,6952
2018-10-21T09:47:38.873Z,7076
2018-10-21T09:48:48.768Z,7260
2018-10-21T09:49:59.335Z,7456
2018-10-21T09:51:09.442Z,7704
2018-10-21T09:52:20.198Z,7904
2018-10-21T09:53:29.990Z,8036
2018-10-21T09:54:39.954Z,8292
2018-10-21T09:55:50.124Z,8640
2018-10-21T09:57:00.025Z,8828
2018-10-21T09:58:10.274Z,8912
2018-10-21T09:59:20.620Z,8860
2018-10-21T10:00:30.514Z,8824
2018-10-21T10:01:40.421Z,8804
2018-10-21T10:02:50.581Z,8760
2018-10-21T10:04:01.413Z,8668
2018-10-21T10:05:11.242Z,8768
2018-10-21T10:06:21.228Z,8972
2018-10-21T10:07:31.395Z,9212
2018-10-21T10:08:41.019Z,9344
2018-10-21T10:09:50.645Z,9320
2018-10-21T10:11:00.820Z,9324
2018-10-21T10:12:10.718Z,9392
2018-10-21T10:13:20.798Z,9372
2018-10-21T10:14:29.886Z,9324
2018-10-21T10:15:39.832Z,9304
2018-10-21T10:16:50.012Z,9332
2018-10-21T10:17:59.914Z,9260
2018-10-21T10:19:09.580Z,8988
2018-10-21T10:20:19.918Z,8744
2018-10-21T10:21:29.543Z,8508
2018-10-21T10:22:39.715Z,8508
2018-10-21T10:23:50.095Z,8672
2018-10-21T10:25:00.279Z,8884
2018-10-21T10:26:10.535Z,9128
2018-10-21T10:27:20.189Z,9272
2018-10-21T10:28:29.811Z,8868
2018-10-21T10:29:39.160Z,8460
2018-10-21T10:30:49.068Z,8264
2018-10-21T10:31:59.251Z,8296
2018-10-21T10:33:09.152Z,8332
2018-10-21T10:34:19.459Z,8252
2018-10-21T10:35:29.072Z,8188
2018-10-21T10:36:38.972Z,8040
2018-10-21T10:37:49.343Z,7784
2018-10-21T10:38:58.980Z,7596
2018-10-21T10:40:08.849Z,7392
2018-10-21T10:41:18.954Z,7368
2018-10-21T10:42:29.134Z,7476
2018-10-21T10:43:39.040Z,7560
2018-10-21T10:44:48.940Z,7380
2018-10-21T10:45:58.637Z,6844
2018-10-21T10:47:08.609Z,6544
2018-10-21T10:48:17.951Z,6896
2018-10-21T10:49:27.850Z,6992
2018-10-21T10:50:37.469Z,7308
2018-10-21T10:51:47.366Z,7572
2018-10-21T10:52:57.992Z,7776
2018-10-21T10:54:07.378Z,7904
2018-10-21T10:55:17.809Z,7988
2018-10-21T10:56:28.130Z,8092
2018-10-21T10:57:37.489Z,8336
2018-10-21T10:58:46.565Z,8696
2018-10-21T10:59:57.218Z,9020
2018-10-21T11:01:07.390Z,9236
2018-10-21T11:02:16.468Z,9388
2018-10-21T11:03:26.115Z,9280
2018-10-21T11:04:35.461Z,9340
2018-10-21T11:05:45.632Z,9484
2018-10-21T11:06:55.834Z,9432
2018-10-21T11:08:05.792Z,9368
2018-10-21T11:09:15.145Z,9088
2018-10-21T11:10:25.139Z,8780
2018-10-21T11:11:35.040Z,8424
2018-10-21T11:12:44.710Z,8452
2018-10-21T11:13:54.672Z,8620
2018-10-21T11:15:04.904Z,8860
2018-10-21T11:16:15.208Z,9300
2018-10-21T11:17:25.619Z,9544
2018-10-21T11:18:35.251Z,9540
2018-10-21T11:19:45.412Z,9788
2018-10-21T11:20:55.115Z,9852
2018-10-21T11:22:05.659Z,9952
2018-10-21T11:23:15.655Z,10060
2018-10-21T11:24:25.582Z,10136
2018-10-21T11:25:35.482Z,10108
2018-10-21T11:26:45.658Z,9944
2018-10-21T11:27:55.713Z,9920
2018-10-21T11:29:05.606Z,9920
2018-10-21T11:30:14.961Z,10048
2018-10-21T11:31:24.762Z,9932
2018-10-21T11:32:34.950Z,9744
2018-10-21T11:33:45.130Z,9504
2018-10-21T11:34:55.021Z,9300
2018-10-21T11:36:04.921Z,9324
2018-10-21T11:37:14.643Z,9512
2018-10-21T11:38:25.144Z,10212
2018-10-21T11:39:35.040Z,11076
2018-10-21T11:40:44.667Z,12212
2018-10-21T11:41:54.584Z,12612
2018-10-21T11:43:04.306Z,12752
2018-10-21T11:44:14.384Z,12824
2018-10-21T11:45:24.012Z,12248
2018-10-21T11:46:34.207Z,11908
2018-10-21T11:47:43.934Z,11884
2018-10-21T11:48:53.877Z,11976
2018-10-21T11:50:03.844Z,12128
2018-10-21T11:51:14.021Z,12208
2018-10-21T11:52:24.153Z,12620
2018-10-21T11:53:33.781Z,12636
2018-10-21T11:54:43.684Z,12552
2018-10-21T11:55:52.760Z,12192
2018-10-21T11:57:02.389Z,11636
2018-10-21T11:58:12.157Z,11044
2018-10-21T11:59:22.110Z,10688
2018-10-21T12:00:31.732Z,9740
2018-10-21T12:01:41.635Z,9396
2018-10-21T12:02:51.655Z,8336
2018-10-21T12:04:01.666Z,10628
2018-10-21T12:05:12.028Z,9960
2018-10-21T12:06:21.661Z,11388
2018-10-21T12:07:31.288Z,9804
2018-10-21T12:08:41.466Z,9008
2018-10-21T12:09:50.832Z,7988
2018-10-21T12:11:01.015Z,10652
2018-10-21T12:12:10.911Z,12284
2018-10-21T12:13:21.162Z,12124
2018-10-21T12:14:31.079Z,12560
2018-10-21T12:15:40.987Z,12452
2018-10-21T12:16:50.666Z,12632
2018-10-21T12:18:00.841Z,12420
2018-10-21T12:19:10.608Z,12080
2018-10-21T12:20:21.005Z,11580
2018-10-21T12:21:31.180Z,11108
2018-10-21T12:22:41.457Z,10580
2018-10-21T12:23:50.845Z,10308
2018-10-21T12:25:01.274Z,10112
2018-10-21T12:26:11.367Z,10268
2018-10-21T12:27:20.993Z,10580
2018-10-21T12:28:30.883Z,10852
2018-10-21T12:29:40.775Z,10884
2018-10-21T12:30:50.954Z,10764
2018-10-21T12:32:00.576Z,10344
2018-10-21T12:33:10.743Z,9512
2018-10-21T12:34:21.425Z,9076
2018-10-21T12:35:31.315Z,9072
2018-10-21T12:36:41.218Z,9324
2018-10-21T12:37:51.445Z,9520
2018-10-21T12:39:01.621Z,9612
2018-10-21T12:40:12.227Z,9760
2018-10-21T12:41:22.434Z,10032
2018-10-21T12:42:32.335Z,10468
2018-10-21T12:43:41.979Z,10884
2018-10-21T12:44:52.156Z,11224
2018-10-21T12:46:01.940Z,11332
2018-10-21T12:47:11.889Z,11404
2018-10-21T12:48:22.326Z,11684
2018-10-21T12:49:32.223Z,11888
2018-10-21T12:50:42.141Z,11840
2018-10-21T12:51:51.500Z,12020
2018-10-21T12:53:01.319Z,11996
2018-10-21T12:54:11.336Z,11816
2018-10-21T12:55:21.874Z,11716
2018-10-21T12:56:31.207Z,11772
2018-10-21T12:57:40.563Z,11724
2018-10-21T12:58:50.460Z,11500
2018-10-21T13:00:00.355Z,11464
2018-10-21T13:01:10.411Z,11272
2018-10-21T13:02:20.890Z,11184
2018-10-21T13:03:31.022Z,11364
2018-10-21T13:04:40.647Z,11440
2018-10-21T13:05:50.540Z,11420
2018-10-21T13:07:00.239Z,11256
2018-10-21T13:08:09.871Z,10984
2018-10-21T13:09:19.493Z,10856
2018-10-21T13:10:29.401Z,10896
2018-10-21T13:11:38.475Z,11372
2018-10-21T13:12:48.949Z,12120
2018-10-21T13:13:58.591Z,12488
2018-10-21T13:15:08.777Z,12696
2018-10-21T13:16:19.262Z,12844
2018-10-21T13:17:28.339Z,12920
2018-10-21T13:18:38.244Z,12852
2018-10-21T13:19:48.512Z,12712
2018-10-21T13:20:58.657Z,13048
2018-10-21T13:22:09.092Z,12636
2018-10-21T13:23:18.861Z,12440
2018-10-21T13:24:28.756Z,12772
2018-10-21T13:25:38.937Z,13004
2018-10-21T13:26:49.153Z,12152
2018-10-21T13:27:58.907Z,11480
2018-10-21T13:29:08.315Z,10912
2018-10-21T13:30:17.661Z,10848
2018-10-21T13:31:27.556Z,11524
2018-10-21T13:32:37.776Z,11044
2018-10-21T13:33:47.398Z,10756
2018-10-21T13:34:57.577Z,11288
2018-10-21T13:36:07.209Z,12820
2018-10-21T13:37:17.888Z,12564
2018-10-21T13:38:27.488Z,12388
2018-10-21T13:39:37.387Z,12068
2018-10-21T13:40:47.822Z,13236
2018-10-21T13:41:57.445Z,12200
2018-10-21T13:43:07.215Z,11920
2018-10-21T13:44:17.085Z,14196
2018-10-21T13:45:26.984Z,12368
2018-10-21T13:46:37.183Z,11180
2018-10-21T13:47:46.824Z,9948
2018-10-21T13:48:56.528Z,9988
2018-10-21T13:50:05.948Z,8544
2018-10-21T13:51:15.293Z,7536
2018-10-21T13:52:25.333Z,7312
2018-10-21T13:53:36.320Z,6952
2018-10-21T13:54:45.712Z,6704
2018-10-21T13:55:55.105Z,5988
2018-10-21T13:57:05.001Z,7244
2018-10-21T13:58:15.697Z,7728
2018-10-21T13:59:25.827Z,7328
2018-10-21T14:00:36.432Z,7608
2018-10-21T14:01:46.645Z,7896
2018-10-21T14:02:56.271Z,8064
2018-10-21T14:04:06.395Z,8572
2018-10-21T14:05:16.397Z,9396
2018-10-21T14:06:26.302Z,9876
2018-10-21T14:07:36.605Z,9872
2018-10-21T14:08:46.506Z,9636
2018-10-21T14:09:56.426Z,9304
2018-10-21T14:11:06.069Z,9316
2018-10-21T14:12:15.965Z,9172
2018-10-21T14:13:25.474Z,8820
2018-10-21T14:14:35.372Z,8184
2018-10-21T14:15:45.667Z,7432
2018-10-21T14:16:55.662Z,6788
2018-10-21T14:18:05.557Z,6440
2018-10-21T14:19:15.750Z,6068
2018-10-21T14:20:25.385Z,5732
2018-10-21T14:21:35.598Z,5336
2018-10-21T14:22:44.967Z,5160
2018-10-21T14:23:55.222Z,5272
2018-10-21T14:25:04.875Z,5492
2018-10-21T14:26:14.298Z,5800
2018-10-21T14:27:24.208Z,5908
2018-10-21T14:28:34.157Z,5904
2018-10-21T14:29:43.509Z,5916
2018-10-21T14:30:53.504Z,6088
2018-10-21T14:32:03.862Z,6448
2018-10-21T14:33:14.043Z,7148
2018-10-21T14:34:24.166Z,7840
2018-10-21T14:35:34.342Z,8468
2018-10-21T14:36:43.963Z,8824
2018-10-21T14:37:54.349Z,8916
2018-10-21T14:39:04.269Z,9128
2018-10-21T14:40:14.225Z,9348
2018-10-21T14:41:23.905Z,9716
2018-10-21T14:42:33.797Z,9648
2018-10-21T14:43:43.694Z,9412
2018-10-21T14:44:53.902Z,8852
2018-10-21T14:46:05.185Z,9316
2018-10-21T14:47:15.699Z,9448
2018-10-21T14:48:25.220Z,9724
2018-10-21T14:49:35.116Z,11132
2018-10-21T14:50:45.337Z,11080
2018-10-21T14:51:54.416Z,10548
2018-10-21T14:53:04.330Z,10576
2018-10-21T14:54:14.884Z,10132
2018-10-21T14:55:24.515Z,9356
2018-10-21T14:56:34.154Z,9004
2018-10-21T14:57:43.784Z,8760
2018-10-21T14:58:53.418Z,8756
2018-10-21T15:00:03.965Z,8292
2018-10-21T15:01:13.953Z,7988
2018-10-21T15:02:23.576Z,7184
2018-10-21T15:03:33.835Z,6772
2018-10-21T15:04:43.935Z,6484
2018-10-21T15:05:54.129Z,6144
2018-10-21T15:07:04.086Z,5484
2018-10-21T15:08:14.514Z,4880
2018-10-21T15:09:24.785Z,4644
2018-10-21T15:10:34.490Z,4568
2018-10-21T15:11:44.445Z,4712
2018-10-21T15:12:54.617Z,4804
2018-10-21T15:14:04.379Z,4788
2018-10-21T15:15:14.176Z,4392
2018-10-21T15:16:24.544Z,3892
2018-10-21T15:17:34.177Z,3612
2018-10-21T15:18:44.081Z,3420
2018-10-21T15:19:54.264Z,3204
2018-10-21T15:21:04.244Z,3000
2018-10-21T15:22:14.127Z,2788
2018-10-21T15:23:24.462Z,2616
2018-10-21T15:24:34.832Z,2488
2018-10-21T15:25:44.463Z,2388
2018-10-21T15:26:54.085Z,2312
2018-10-21T15:28:04.432Z,2228
2018-10-21T15:29:13.655Z,2220
2018-10-21T15:30:23.759Z,2208
2018-10-21T15:31:33.925Z,2192
2018-10-21T15:32:43.837Z,2108
2018-10-21T15:33:53.808Z,1964
2018-10-21T15:35:03.709Z,1916
2018-10-21T15:36:13.614Z,1880
2018-10-21T15:37:23.247Z,1852
2018-10-21T15:38:32.599Z,1776
2018-10-21T15:39:42.702Z,1612
2018-10-21T15:40:53.025Z,1436
2018-10-21T15:42:02.646Z,1332
2018-10-21T15:43:12.542Z,1280
2018-10-21T15:44:22.392Z,1204
2018-10-21T15:45:32.287Z,1164
2018-10-21T15:46:42.217Z,1112
2018-10-21T15:47:51.290Z,1068
2018-10-21T15:49:01.530Z,1012
2018-10-21T15:50:11.840Z,944
2018-10-21T15:51:22.217Z,872
2018-10-21T15:52:32.403Z,796
2018-10-21T15:53:42.025Z,728
2018-10-21T15:54:52.115Z,672
2018-10-21T15:56:02.237Z,616
2018-10-21T15:57:11.929Z,576
2018-10-21T15:58:22.298Z,540
2018-10-21T15:59:32.194Z,512
2018-10-21T16:00:41.819Z,472
2018-10-21T16:01:51.994Z,432
2018-10-21T16:03:01.938Z,396